createdAt,value
2019-02-11T00:02:29.709Z,94564.63
2019-02-11T00:05:02.563Z,94559.47
2019-02-11T00:07:35.883Z,94546.44
2019-02-11T00:10:09.141Z,94534.17
2019-02-11T00:12:42.347Z,94535.86
2019-02-11T00:15:15.591Z,94540.84
2019-02-11T00:17:48.788Z,94534.82
2019-02-11T00:20:21.764Z,94538.93
2019-02-11T00:22:54.432Z,94547.52
2019-02-11T00:25:27.623Z,94543.42
2019-02-11T00:28:00.862Z,94549.45
2019-02-11T00:30:34.353Z,94550.67
2019-02-11T00:33:07.505Z,94548.69
2019-02-11T00:35:40.465Z,94541.82
2019-02-11T00:38:13.781Z,94538.04
2019-02-11T00:40:46.529Z,94543.95
2019-02-11T00:43:19.564Z,94531.91
2019-02-11T00:45:54.119Z,94534.34
2019-02-11T00:48:26.999Z,94532.62
2019-02-11T00:51:00.221Z,94535.59
2019-02-11T00:53:33.053Z,94528.50
2019-02-11T00:56:06.287Z,94519.28
2019-02-11T00:58:39.389Z,94511.45
2019-02-11T01:01:12.363Z,94499.06
2019-02-11T01:03:45.560Z,94506.42
2019-02-11T01:06:20.147Z,94490.86
2019-02-11T01:08:53.133Z,94484.30
2019-02-11T01:11:26.284Z,94482.05
2019-02-11T01:13:59.189Z,94481.34
2019-02-11T01:16:31.990Z,94474.30
2019-02-11T01:19:05.102Z,94473.11
2019-02-11T01:21:38.100Z,94456.11
2019-02-11T01:24:10.968Z,94462.97
2019-02-11T01:26:43.737Z,94459.41
2019-02-11T01:29:16.758Z,94450.91
2019-02-11T01:31:49.744Z,94451.20
2019-02-11T01:34:22.504Z,94440.88
2019-02-11T01:36:55.519Z,94441.55
2019-02-11T01:39:28.701Z,94442.00
2019-02-11T01:42:01.536Z,94435.17
2019-02-11T01:44:34.371Z,94428.76
2019-02-11T01:47:07.272Z,94421.94
2019-02-11T01:49:40.160Z,94415.07
2019-02-11T01:52:13.203Z,94420.73
2019-02-11T01:54:46.029Z,94415.30
2019-02-11T01:57:19.042Z,94408.66
2019-02-11T01:59:52.161Z,94415.05
2019-02-11T02:02:25.366Z,94415.88
2019-02-11T02:05:00.485Z,94424.73
2019-02-11T02:07:33.498Z,94424.88
2019-02-11T02:10:07.223Z,94430.11
2019-02-11T02:12:40.148Z,94429.00
2019-02-11T02:15:14.060Z,94437.13
2019-02-11T02:17:46.874Z,94438.94
2019-02-11T02:20:20.032Z,94434.97
2019-02-11T02:22:52.898Z,94432.76
2019-02-11T02:25:25.670Z,94420.08
2019-02-11T02:27:58.748Z,94410.12
2019-02-11T02:30:32.087Z,94409.00
2019-02-11T02:33:05.080Z,94400.06
2019-02-11T02:35:38.083Z,94385.47
2019-02-11T02:38:11.378Z,94388.73
2019-02-11T02:40:44.284Z,94380.84
2019-02-11T02:43:17.124Z,94385.48
2019-02-11T02:45:50.246Z,94392.22
2019-02-11T02:48:23.161Z,94400.67
2019-02-11T02:50:55.926Z,94391.67
2019-02-11T02:53:28.767Z,94381.06
2019-02-11T02:56:01.739Z,94362.97
2019-02-11T02:58:34.920Z,94348.95
2019-02-11T03:01:07.923Z,94353.55
2019-02-11T03:03:42.194Z,94357.69
2019-02-11T03:06:15.289Z,94377.21
2019-02-11T03:08:48.065Z,94368.31
2019-02-11T03:11:21.333Z,94378.34
2019-02-11T03:13:54.230Z,94375.56
2019-02-11T03:16:27.436Z,94368.13
2019-02-11T03:19:00.634Z,94374.56
2019-02-11T03:21:33.607Z,94375.95
2019-02-11T03:24:06.692Z,94360.72
2019-02-11T03:26:39.672Z,94375.34
2019-02-11T03:29:12.541Z,94366.73
2019-02-11T03:31:45.795Z,94379.05
2019-02-11T03:34:18.781Z,94384.66
2019-02-11T03:36:51.874Z,94367.15
2019-02-11T03:39:24.891Z,94374.14
2019-02-11T03:41:58.125Z,94363.98
2019-02-11T03:44:31.122Z,94359.97
2019-02-11T03:47:04.066Z,94358.98
2019-02-11T03:49:38.162Z,94341.72
2019-02-11T03:52:11.061Z,94347.75
2019-02-11T03:54:44.411Z,94339.96
2019-02-11T03:57:17.361Z,94349.98
2019-02-11T03:59:50.232Z,94349.28
2019-02-11T04:02:23.181Z,94359.56
2019-02-11T04:04:57.247Z,94359.72
2019-02-11T04:07:30.042Z,94350.86
2019-02-11T04:10:03.031Z,94345.56
2019-02-11T04:12:36.247Z,94347.47
2019-02-11T04:15:09.816Z,94345.63
2019-02-11T04:17:42.885Z,94333.40
2019-02-11T04:20:16.202Z,94327.48
2019-02-11T04:22:49.747Z,94328.06
2019-02-11T04:25:22.813Z,94352.94
2019-02-11T04:27:55.546Z,94351.55
2019-02-11T04:30:28.723Z,94346.86
2019-02-11T04:33:02.164Z,94333.59
2019-02-11T04:35:35.285Z,94326.25
2019-02-11T04:38:08.687Z,94322.01
2019-02-11T04:40:41.984Z,94310.39
2019-02-11T04:43:15.260Z,94304.19
2019-02-11T04:45:48.411Z,94302.84
2019-02-11T04:48:21.372Z,94313.74
2019-02-11T04:50:54.797Z,94318.26
2019-02-11T04:53:27.700Z,94319.51
2019-02-11T04:56:02.194Z,94321.71
2019-02-11T04:58:35.188Z,94322.02
2019-02-11T05:01:08.021Z,94299.01
2019-02-11T05:03:41.140Z,94296.21
2019-02-11T05:06:14.170Z,94301.90
2019-02-11T05:08:47.091Z,94294.13
2019-02-11T05:11:20.322Z,94284.22
2019-02-11T05:13:53.281Z,94283.17
2019-02-11T05:16:26.545Z,94298.53
2019-02-11T05:18:59.675Z,94313.08
2019-02-11T05:21:32.663Z,94320.82
2019-02-11T05:24:05.498Z,94327.16
2019-02-11T05:26:38.585Z,94318.68
2019-02-11T05:29:11.513Z,94319.69
2019-02-11T05:31:44.785Z,94316.91
2019-02-11T05:34:18.044Z,94300.97
2019-02-11T05:36:51.377Z,94297.41
2019-02-11T05:39:24.676Z,94307.56
2019-02-11T05:41:57.533Z,94297.13
2019-02-11T05:44:30.418Z,94303.55
2019-02-11T05:47:03.523Z,94312.95
2019-02-11T05:49:36.460Z,94322.55
2019-02-11T05:52:09.330Z,94339.40
2019-02-11T05:54:43.114Z,94348.56
2019-02-11T05:57:16.048Z,94346.32
2019-02-11T05:59:49.049Z,94338.47
2019-02-11T06:02:23.478Z,94323.30
2019-02-11T06:04:56.419Z,94318.56
2019-02-11T06:07:29.307Z,94321.40
2019-02-11T06:10:05.759Z,94323.88
2019-02-11T06:12:38.796Z,94324.22
2019-02-11T06:15:11.797Z,94332.84
2019-02-11T06:17:44.746Z,94325.78
2019-02-11T06:20:17.273Z,94319.51
2019-02-11T06:22:56.802Z,94327.54
2019-02-11T06:25:30.055Z,94322.74
2019-02-11T06:30:56.966Z,94315.71
2019-02-11T06:33:29.999Z,94324.75
2019-02-11T06:36:12.027Z,94323.34
2019-02-11T06:38:37.625Z,94331.33
2019-02-11T06:41:10.949Z,94338.86
2019-02-11T06:43:43.785Z,94331.44
2019-02-11T06:46:17.027Z,94337.51
2019-02-11T06:48:50.054Z,94342.78
2019-02-11T06:51:23.398Z,94336.73
2019-02-11T06:53:55.978Z,94336.88
2019-02-11T06:56:29.196Z,94336.20
2019-02-11T06:59:02.182Z,94344.89
2019-02-11T07:01:34.991Z,94342.97
2019-02-11T07:04:10.006Z,94340.69
2019-02-11T07:06:42.959Z,94334.20
2019-02-11T07:09:16.635Z,94329.09
2019-02-11T07:11:49.667Z,94319.62
2019-02-11T07:14:22.587Z,94322.87
2019-02-11T07:16:55.460Z,94327.27
2019-02-11T07:19:28.602Z,94307.95
2019-02-11T07:22:02.170Z,94312.66
2019-02-11T07:24:35.148Z,94308.26
2019-02-11T07:27:07.976Z,94303.48
2019-02-11T07:29:41.164Z,94295.71
2019-02-11T07:32:14.262Z,94281.98
2019-02-11T07:34:47.187Z,94290.03
2019-02-11T07:37:19.927Z,94299.13
2019-02-11T07:39:53.084Z,94297.09
2019-02-11T07:42:37.532Z,94299.48
2019-02-11T07:45:30.338Z,94305.70
2019-02-11T07:48:03.876Z,94298.16
2019-02-11T07:50:37.122Z,94284.64
2019-02-11T07:53:10.107Z,94269.23
2019-02-11T07:55:43.377Z,94272.13
2019-02-11T07:58:16.237Z,94273.73
2019-02-11T08:00:48.970Z,94274.58
2019-02-11T08:03:22.431Z,94266.95
2019-02-11T08:05:55.491Z,94257.81
2019-02-11T08:08:28.609Z,94253.28
2019-02-11T08:11:01.648Z,94251.12
2019-02-11T08:13:34.439Z,94238.08
2019-02-11T08:16:07.692Z,94235.44
2019-02-11T08:18:40.592Z,94236.60
2019-02-11T08:21:13.841Z,94241.34
2019-02-11T08:23:47.398Z,94235.88
2019-02-11T08:26:20.245Z,94225.08
2019-02-11T08:28:53.750Z,94219.16
2019-02-11T08:31:28.006Z,94220.27
2019-02-11T08:34:01.484Z,94212.77
2019-02-11T08:36:34.209Z,94203.91
2019-02-11T08:39:10.409Z,94197.45
2019-02-11T08:41:45.573Z,94201.69
2019-02-11T08:44:18.370Z,94184.25
2019-02-11T08:46:51.726Z,94195.60
2019-02-11T08:49:24.854Z,94184.34
2019-02-11T08:51:57.643Z,94181.92
2019-02-11T08:54:30.718Z,94162.08
2019-02-11T08:57:03.624Z,94158.28
2019-02-11T08:59:38.200Z,94154.71
2019-02-11T09:02:11.269Z,94156.08
2019-02-11T09:04:45.488Z,94147.93
2019-02-11T09:07:18.514Z,94140.77
2019-02-11T09:09:51.788Z,94141.19
2019-02-11T09:12:26.006Z,94141.39
2019-02-11T09:15:01.120Z,94133.05
2019-02-11T09:17:34.297Z,94127.30
2019-02-11T09:20:08.687Z,94121.20
2019-02-11T09:22:42.474Z,94119.80
2019-02-11T09:25:15.882Z,94123.16
2019-02-11T09:27:48.781Z,94125.24
2019-02-11T09:30:21.516Z,94129.11
2019-02-11T09:32:54.451Z,94126.22
2019-02-11T09:35:28.763Z,94126.50
2019-02-11T09:38:01.738Z,94123.50
2019-02-11T09:40:34.790Z,94129.13
2019-02-11T09:43:08.062Z,94104.32
2019-02-11T09:45:41.168Z,94110.94
2019-02-11T09:48:19.625Z,94106.95
2019-02-11T09:50:54.354Z,94106.84
2019-02-11T09:53:27.235Z,94102.34
2019-02-11T09:56:00.349Z,94086.33
2019-02-11T09:58:33.618Z,94082.75
2019-02-11T10:01:06.672Z,94082.88
2019-02-11T10:03:39.487Z,94077.16
2019-02-11T10:06:12.727Z,94072.08
2019-02-11T10:08:46.121Z,94070.94
2019-02-11T10:11:18.997Z,94062.09
2019-02-11T10:13:52.363Z,94051.80
2019-02-11T10:16:25.380Z,94053.06
2019-02-11T10:18:58.558Z,94043.68
2019-02-11T10:21:31.043Z,94025.27
2019-02-11T10:24:04.153Z,94024.06
2019-02-11T10:26:38.409Z,94040.37
2019-02-11T10:29:11.148Z,94031.95
2019-02-11T10:31:44.196Z,94024.87
2019-02-11T10:34:17.210Z,94013.74
2019-02-11T10:36:51.657Z,93999.25
2019-02-11T10:39:24.650Z,94007.39
2019-02-11T10:41:59.910Z,93994.64
2019-02-11T10:44:33.256Z,93986.07
2019-02-11T10:47:07.995Z,93969.89
2019-02-11T10:49:40.770Z,93973.69
2019-02-11T10:52:14.042Z,93968.02
2019-02-11T10:55:06.177Z,93967.13
2019-02-11T10:57:39.573Z,93957.72
2019-02-11T11:00:21.321Z,93958.83
2019-02-11T11:02:54.631Z,93942.53
2019-02-11T11:05:28.135Z,93935.08
2019-02-11T11:08:01.150Z,93932.88
2019-02-11T11:10:36.612Z,93925.27
2019-02-11T11:13:09.756Z,93913.86
2019-02-11T11:15:42.993Z,93919.66
2019-02-11T11:18:16.104Z,93931.20
2019-02-11T11:20:48.948Z,93926.33
2019-02-11T11:23:22.193Z,93915.06
2019-02-11T11:25:55.092Z,93915.23
2019-02-11T11:28:28.416Z,93904.06
2019-02-11T11:31:01.465Z,93892.75
2019-02-11T11:33:35.508Z,93887.20
2019-02-11T11:36:08.772Z,93879.70
2019-02-11T11:38:41.896Z,93898.17
2019-02-11T11:41:15.000Z,93893.40
2019-02-11T11:43:47.815Z,93898.95
2019-02-11T11:46:20.841Z,93895.28
2019-02-11T11:48:53.866Z,93883.92
2019-02-11T11:51:26.819Z,93876.01
2019-02-11T11:53:59.708Z,93869.90
2019-02-11T11:56:32.881Z,93844.16
2019-02-11T11:59:05.894Z,93848.20
2019-02-11T12:01:39.343Z,93835.72
2019-02-11T12:04:11.950Z,93839.33
2019-02-11T12:06:45.099Z,93851.80
2019-02-11T12:09:18.189Z,93847.31
2019-02-11T12:11:51.176Z,93839.38
2019-02-11T12:14:24.219Z,93842.56
2019-02-11T12:17:02.284Z,93834.53
2019-02-11T12:19:33.353Z,93824.19
2019-02-11T12:22:06.258Z,93817.14
2019-02-11T12:24:39.328Z,93820.34
2019-02-11T12:27:12.829Z,93814.38
2019-02-11T12:29:45.747Z,93820.52
2019-02-11T12:32:18.885Z,93820.91
2019-02-11T12:34:52.151Z,93819.43
2019-02-11T12:37:26.278Z,93821.91
2019-02-11T12:39:59.213Z,93808.38
2019-02-11T12:42:32.187Z,93818.47
2019-02-11T12:45:08.229Z,93807.54
2019-02-11T12:47:41.506Z,93806.52
2019-02-11T12:50:15.787Z,93815.17
2019-02-11T12:52:48.936Z,93817.70
2019-02-11T12:55:22.087Z,93808.86
2019-02-11T12:57:55.467Z,93806.03
2019-02-11T13:00:28.529Z,93804.89
2019-02-11T13:03:01.698Z,93793.75
2019-02-11T13:05:45.061Z,93782.61
2019-02-11T13:08:09.914Z,93784.74
2019-02-11T13:10:43.749Z,93790.22
2019-02-11T13:13:16.944Z,93781.52
2019-02-11T13:16:01.995Z,93778.94
2019-02-11T13:18:25.621Z,93772.63
2019-02-11T13:20:58.892Z,93764.59
2019-02-11T13:23:32.575Z,93757.72
2019-02-11T13:26:05.630Z,93752.31
2019-02-11T13:28:38.809Z,93754.79
2019-02-11T13:31:12.114Z,93747.91
2019-02-11T13:33:46.919Z,93741.42
2019-02-11T13:36:20.084Z,93738.97
2019-02-11T13:38:53.428Z,93740.53
2019-02-11T13:41:27.101Z,93730.08
2019-02-11T13:44:00.570Z,93730.39
2019-02-11T13:46:34.322Z,93733.98
2019-02-11T13:49:07.749Z,93724.96
2019-02-11T13:51:40.879Z,93717.42
2019-02-11T13:54:14.375Z,93709.99
2019-02-11T13:56:47.496Z,93715.50
2019-02-11T13:59:20.720Z,93715.55
2019-02-11T14:01:54.284Z,93707.73
2019-02-11T14:04:28.474Z,93702.88
2019-02-11T14:07:01.897Z,93697.72
2019-02-11T14:09:35.055Z,93687.64
2019-02-11T14:12:08.324Z,93694.28
2019-02-11T14:14:41.972Z,93696.09
2019-02-11T14:17:15.209Z,93687.66
2019-02-11T14:19:48.767Z,93684.73
2019-02-11T14:22:22.266Z,93691.42
2019-02-11T14:24:55.292Z,93688.17
2019-02-11T14:27:28.344Z,93675.39
2019-02-11T14:30:01.674Z,93672.84
2019-02-11T14:32:34.888Z,93665.75
2019-02-11T14:35:08.740Z,93668.55
2019-02-11T14:37:42.007Z,93673.11
2019-02-11T14:40:16.566Z,93660.61
2019-02-11T14:42:51.615Z,93656.29
2019-02-11T14:45:25.568Z,93657.00
2019-02-11T14:47:59.720Z,93653.41
2019-02-11T14:50:34.001Z,93653.88
2019-02-11T14:53:07.808Z,93655.60
2019-02-11T14:55:42.308Z,93645.61
2019-02-11T14:58:15.520Z,93649.80
2019-02-11T15:00:49.147Z,93647.14
2019-02-11T15:03:22.685Z,93650.18
2019-02-11T15:05:55.877Z,93649.92
2019-02-11T15:08:29.448Z,93635.08
2019-02-11T15:11:02.641Z,93644.32
2019-02-11T15:13:36.145Z,93642.48
2019-02-11T15:16:09.399Z,93645.64
2019-02-11T15:18:42.556Z,93657.43
2019-02-11T15:21:15.955Z,93654.25
2019-02-11T15:23:49.204Z,93662.20
2019-02-11T15:26:22.846Z,93659.84
2019-02-11T15:28:56.003Z,93656.41
2019-02-11T15:31:29.390Z,93650.56
2019-02-11T15:34:02.570Z,93646.40
2019-02-11T15:36:36.040Z,93655.61
2019-02-11T15:39:11.772Z,93664.33
2019-02-11T15:41:45.217Z,93653.48
2019-02-11T15:44:19.125Z,93653.76
2019-02-11T15:46:53.170Z,93657.05
2019-02-11T15:49:28.410Z,93661.11
2019-02-11T15:52:02.099Z,93654.50
2019-02-11T15:54:35.352Z,93654.18
2019-02-11T15:57:08.739Z,93650.18
2019-02-11T15:59:42.237Z,93645.52
2019-02-11T16:02:15.611Z,93643.28
2019-02-11T16:04:49.252Z,93637.48
2019-02-11T16:07:22.935Z,93638.27
2019-02-11T16:09:56.230Z,93633.05
2019-02-11T16:12:31.496Z,93623.13
2019-02-11T16:15:05.858Z,93617.45
2019-02-11T16:17:39.328Z,93626.11
2019-02-11T16:20:14.504Z,93621.85
2019-02-11T16:22:48.366Z,93619.20
2019-02-11T16:25:21.667Z,93621.98
2019-02-11T16:27:57.947Z,93622.91
2019-02-11T16:30:31.572Z,93623.59
2019-02-11T16:33:04.886Z,93624.19
2019-02-11T16:35:38.346Z,93616.92
2019-02-11T16:38:11.696Z,93621.04
2019-02-11T16:40:44.687Z,93609.57
2019-02-11T16:43:18.075Z,93609.13
2019-02-11T16:45:51.233Z,93611.73
2019-02-11T16:48:24.397Z,93611.72
2019-02-11T16:50:57.811Z,93616.16
2019-02-11T16:53:31.462Z,93621.42
2019-02-11T16:56:04.296Z,93604.86
2019-02-11T16:58:37.400Z,93610.00
2019-02-11T17:01:12.296Z,93614.57
2019-02-11T17:03:46.761Z,93615.16
2019-02-11T17:06:20.071Z,93610.88
2019-02-11T17:08:53.529Z,93610.48
2019-02-11T17:11:26.361Z,93624.66
2019-02-11T17:13:59.691Z,93635.34
2019-02-11T17:16:32.770Z,93631.41
2019-02-11T17:19:09.384Z,93639.61
2019-02-11T17:21:41.524Z,93651.30
2019-02-11T17:24:14.709Z,93624.41
2019-02-11T17:26:47.491Z,93639.19
2019-02-11T17:29:20.820Z,93644.47
2019-02-11T17:31:54.185Z,93640.62
2019-02-11T17:34:28.111Z,93639.78
2019-02-11T17:37:03.645Z,93633.12
2019-02-11T17:39:36.963Z,93624.13
2019-02-11T17:42:09.967Z,93616.66
2019-02-11T17:44:44.228Z,93613.49
2019-02-11T17:47:17.685Z,93612.49
2019-02-11T17:49:51.175Z,93606.80
2019-02-11T17:52:24.874Z,93607.17
2019-02-11T17:54:58.641Z,93602.78
2019-02-11T17:57:32.205Z,93591.00
2019-02-11T18:00:06.583Z,93582.99
2019-02-11T18:02:41.766Z,93588.08
2019-02-11T18:05:15.628Z,93585.81
2019-02-11T18:07:49.153Z,93584.83
2019-02-11T18:10:33.079Z,93583.95
2019-02-11T18:13:06.353Z,93594.27
2019-02-11T18:15:39.676Z,93592.22
2019-02-11T18:18:13.382Z,93595.30
2019-02-11T18:20:46.965Z,93586.13
2019-02-11T18:23:21.293Z,93581.44
2019-02-11T18:25:55.128Z,93585.72
2019-02-11T18:28:28.117Z,93591.05
2019-02-11T18:31:01.671Z,93587.03
2019-02-11T18:33:35.579Z,93590.25
2019-02-11T18:36:09.058Z,93576.83
2019-02-11T18:38:42.396Z,93580.89
2019-02-11T18:41:16.235Z,93569.92
2019-02-11T18:43:53.528Z,93578.52
2019-02-11T18:46:27.173Z,93581.16
2019-02-11T18:49:00.557Z,93582.71
2019-02-11T18:51:34.122Z,93566.81
2019-02-11T18:54:08.851Z,93574.36
2019-02-11T18:56:42.661Z,93566.72
2019-02-11T18:59:24.263Z,93573.44
2019-02-11T19:01:51.872Z,93561.94
2019-02-11T19:04:24.710Z,93551.34
2019-02-11T19:06:59.920Z,93547.92
2019-02-11T19:09:33.449Z,93557.26
2019-02-11T19:12:07.395Z,93556.39
2019-02-11T19:14:42.849Z,93554.78
2019-02-11T19:17:16.167Z,93559.38
2019-02-11T19:19:49.776Z,93552.60
2019-02-11T19:22:23.135Z,93552.75
2019-02-11T19:24:56.800Z,93546.04
2019-02-11T19:27:30.276Z,93540.33
2019-02-11T19:30:03.838Z,93538.03
2019-02-11T19:32:37.557Z,93534.98
2019-02-11T19:35:11.103Z,93532.14
2019-02-11T19:37:44.622Z,93515.08
2019-02-11T19:40:18.906Z,93507.89
2019-02-11T19:42:52.363Z,93508.22
2019-02-11T19:45:26.445Z,93499.98
2019-02-11T19:47:59.619Z,93487.78
2019-02-11T19:50:33.048Z,93490.33
2019-02-11T19:53:06.669Z,93488.38
2019-02-11T19:55:39.846Z,93491.84
2019-02-11T19:58:13.095Z,93486.31
2019-02-11T20:00:46.806Z,93491.90
2019-02-11T20:03:22.360Z,93492.53
2019-02-11T20:05:59.040Z,93490.33
2019-02-11T20:08:32.303Z,93490.03
2019-02-11T20:11:07.514Z,93487.62
2019-02-11T20:13:41.369Z,93493.31
2019-02-11T20:16:15.308Z,93488.27
2019-02-11T20:18:56.307Z,93498.44
2019-02-11T20:21:30.437Z,93511.34
2019-02-11T20:24:04.219Z,93524.81
2019-02-11T20:26:37.201Z,93525.38
2019-02-11T20:29:11.023Z,93511.22
2019-02-11T20:31:44.599Z,93508.96
2019-02-11T20:34:18.465Z,93507.10
2019-02-11T20:36:53.197Z,93503.03
2019-02-11T20:39:26.963Z,93519.03
2019-02-11T20:42:00.281Z,93513.53
2019-02-11T20:44:35.233Z,93521.76
2019-02-11T20:47:08.510Z,93514.78
2019-02-11T20:49:42.185Z,93520.69
2019-02-11T20:52:15.394Z,93532.87
2019-02-11T20:54:50.282Z,93528.88
2019-02-11T20:57:23.682Z,93537.70
2019-02-11T20:59:57.745Z,93569.56
2019-02-11T21:02:32.737Z,93575.71
2019-02-11T21:05:06.370Z,93560.02
2019-02-11T21:07:40.889Z,93562.52
2019-02-11T21:10:15.559Z,93577.41
2019-02-11T21:12:49.146Z,93592.03
2019-02-11T21:15:25.313Z,93620.36
2019-02-11T21:18:00.870Z,93655.73
2019-02-11T21:20:37.767Z,93671.17
2019-02-11T21:23:12.534Z,93685.36
2019-02-11T21:25:46.931Z,93685.64
2019-02-11T21:28:20.712Z,93703.00
2019-02-11T21:30:54.525Z,93710.02
2019-02-11T21:33:27.975Z,93716.19
2019-02-11T21:36:01.211Z,93733.22
2019-02-11T21:38:34.596Z,93734.83
2019-02-11T21:41:07.862Z,93739.77
2019-02-11T21:43:44.279Z,93742.63
2019-02-11T21:46:17.740Z,93749.28
2019-02-11T21:48:51.394Z,93763.45
2019-02-11T21:51:24.717Z,93758.16
2019-02-11T21:53:57.774Z,93766.12
2019-02-11T21:56:31.814Z,93772.28
2019-02-11T21:59:05.412Z,93783.80
2019-02-11T22:01:38.617Z,93788.75
2019-02-11T22:04:11.632Z,93804.03
2019-02-11T22:06:44.952Z,93810.69
2019-02-11T22:09:18.613Z,93812.59
2019-02-11T22:11:52.337Z,93819.03
2019-02-11T22:14:25.176Z,93831.36
2019-02-11T22:16:58.550Z,93838.53
2019-02-11T22:19:32.310Z,93851.80
2019-02-11T22:22:06.094Z,93849.50
2019-02-11T22:24:40.191Z,93836.22
2019-02-11T22:27:13.413Z,93822.25
2019-02-11T22:29:47.734Z,93821.82
2019-02-11T22:32:20.863Z,93818.27
2019-02-11T22:34:54.004Z,93815.72
2019-02-11T22:37:27.162Z,93825.10
2019-02-11T22:40:00.283Z,93832.42
2019-02-11T22:42:34.024Z,93834.13
2019-02-11T22:45:08.763Z,93829.22
2019-02-11T22:47:42.073Z,93819.37
2019-02-11T22:50:15.443Z,93850.94
2019-02-11T22:52:48.727Z,93882.77
2019-02-11T22:55:21.938Z,93879.16
2019-02-11T22:57:55.239Z,93877.66
2019-02-11T23:00:54.058Z,93886.84
2019-02-11T23:03:27.394Z,93872.89
2019-02-11T23:06:00.585Z,93863.91
2019-02-11T23:08:33.810Z,93882.89
2019-02-11T23:11:07.185Z,93902.80
2019-02-11T23:13:40.557Z,93904.16
2019-02-11T23:16:14.155Z,93911.95
2019-02-11T23:18:47.252Z,93908.15
2019-02-11T23:21:21.442Z,93910.73
2019-02-11T23:23:54.726Z,93928.50
2019-02-11T23:26:27.979Z,93926.35
2019-02-11T23:29:01.674Z,93918.94
2019-02-11T23:31:35.195Z,93919.30
2019-02-11T23:34:08.489Z,93927.14
2019-02-11T23:36:41.959Z,93943.08
2019-02-11T23:39:15.936Z,93970.09
2019-02-11T23:41:49.731Z,93962.09
2019-02-11T23:44:22.959Z,93966.36
2019-02-11T23:46:56.106Z,93958.78
2019-02-11T23:49:29.683Z,93942.49
2019-02-11T23:52:03.136Z,93941.86
2019-02-11T23:54:36.562Z,93951.18
2019-02-11T23:57:10.443Z,93941.05
2019-02-11T23:59:44.564Z,93946.11
